createdAt,value
2023-02-16T00:00:51.542Z,3.61
2023-02-16T00:03:37.239Z,3.72
2023-02-16T00:06:24.288Z,3.58
2023-02-16T00:09:09.549Z,3.46
2023-02-16T00:12:13.798Z,3.63
2023-02-16T00:14:59.410Z,3.58
2023-02-16T00:17:44.894Z,3.53
2023-02-16T00:20:30.760Z,3.62
2023-02-16T00:23:16.685Z,3.52
2023-02-16T00:26:03.094Z,3.39
2023-02-16T00:28:54.725Z,3.59
2023-02-16T00:31:40.534Z,3.56
2023-02-16T00:34:28.917Z,3.66
2023-02-16T00:37:14.646Z,3.59
2023-02-16T00:40:00.964Z,3.55
2023-02-16T00:42:47.552Z,3.47
2023-02-16T00:45:37.688Z,3.52
2023-02-16T00:48:24.199Z,3.58
2023-02-16T00:51:24.919Z,3.53
2023-02-16T00:54:11.649Z,3.52
2023-02-16T00:56:57.366Z,3.31
2023-02-16T00:59:43.031Z,3.33
2023-02-16T01:02:29.159Z,3.29
2023-02-16T01:05:14.774Z,3.24
2023-02-16T01:08:19.378Z,3.27
2023-02-16T01:11:07.370Z,3.26
2023-02-16T01:13:54.375Z,3.26
2023-02-16T01:16:42.245Z,3.26
2023-02-16T01:19:27.832Z,3.31
2023-02-16T01:22:13.543Z,3.28
2023-02-16T01:24:58.982Z,3.29
2023-02-16T01:27:45.103Z,3.11
2023-02-16T01:30:30.909Z,3.15
2023-02-16T01:33:16.248Z,3.30
2023-02-16T01:36:02.084Z,3.35
2023-02-16T01:38:47.617Z,3.25
2023-02-16T01:41:59.915Z,3.19
2023-02-16T01:44:50.940Z,3.10
2023-02-16T01:47:49.105Z,3.06
2023-02-16T01:50:45.976Z,3.06
2023-02-16T01:53:40.031Z,3.23
2023-02-16T01:56:36.472Z,3.32
2023-02-16T01:59:42.172Z,3.32
2023-02-16T02:02:32.974Z,3.41
2023-02-16T02:05:35.345Z,3.36
2023-02-16T02:08:45.672Z,3.29
2023-02-16T02:11:36.912Z,3.19
2023-02-16T02:14:28.046Z,3.18
2023-02-16T02:17:17.722Z,3.26
2023-02-16T02:20:22.061Z,3.32
2023-02-16T02:23:33.758Z,3.35
2023-02-16T02:26:41.295Z,3.28
2023-02-16T02:29:56.617Z,3.31
2023-02-16T02:33:00.740Z,3.17
2023-02-16T02:35:58.150Z,3.15
2023-02-16T02:39:19.649Z,3.24
2023-02-16T02:42:13.443Z,3.13
2023-02-16T02:45:09.567Z,3.05
2023-02-16T02:47:54.969Z,3.12
2023-02-16T02:51:07.613Z,3.13
2023-02-16T02:54:35.356Z,3.04
2023-02-16T02:57:42.886Z,3.05
2023-02-16T03:00:41.510Z,2.99
2023-02-16T03:03:33.915Z,2.96
2023-02-16T03:06:24.033Z,2.89
2023-02-16T03:09:14.333Z,2.93
2023-02-16T03:12:21.163Z,2.93
2023-02-16T03:15:10.126Z,2.87
2023-02-16T03:18:16.431Z,2.81
2023-02-16T03:21:23.003Z,2.94
2023-02-16T03:24:31.058Z,2.87
2023-02-16T03:27:43.292Z,2.93
2023-02-16T03:30:30.110Z,2.80
2023-02-16T03:33:16.226Z,2.73
2023-02-16T03:36:03.036Z,2.70
2023-02-16T03:38:48.540Z,2.64
2023-02-16T03:41:39.002Z,2.60
2023-02-16T03:44:24.901Z,2.68
2023-02-16T03:47:10.916Z,2.66
2023-02-16T03:49:56.454Z,2.75
2023-02-16T03:52:42.127Z,2.86
2023-02-16T03:55:27.692Z,2.88
2023-02-16T03:58:16.255Z,2.91
2023-02-16T04:01:02.141Z,2.91
2023-02-16T04:03:47.635Z,2.85
2023-02-16T04:06:33.232Z,2.87
2023-02-16T04:09:18.430Z,2.93
2023-02-16T04:12:23.016Z,2.99
2023-02-16T04:15:15.607Z,2.88
2023-02-16T04:18:01.732Z,2.85
2023-02-16T04:20:47.435Z,2.87
2023-02-16T04:23:32.916Z,2.84
2023-02-16T04:26:18.564Z,2.85
2023-02-16T04:29:04.009Z,2.78
2023-02-16T04:31:49.961Z,2.72
2023-02-16T04:34:35.336Z,2.71
2023-02-16T04:37:21.097Z,2.74
2023-02-16T04:40:08.531Z,2.76
2023-02-16T04:42:53.985Z,2.63
2023-02-16T04:45:39.755Z,2.68
2023-02-16T04:48:25.217Z,2.57
2023-02-16T04:51:10.701Z,2.67
2023-02-16T04:53:56.070Z,2.75
2023-02-16T04:56:44.725Z,2.71
2023-02-16T04:59:30.303Z,2.69
2023-02-16T05:02:15.608Z,2.63
2023-02-16T05:05:00.859Z,2.72
2023-02-16T05:07:46.369Z,2.63
2023-02-16T05:10:32.015Z,2.60
2023-02-16T05:13:35.732Z,2.52
2023-02-16T05:16:23.434Z,2.52
2023-02-16T05:19:08.999Z,2.48
2023-02-16T05:21:54.399Z,2.38
2023-02-16T05:24:40.878Z,2.35
2023-02-16T05:27:28.998Z,2.27
2023-02-16T05:30:14.711Z,2.36
2023-02-16T05:33:00.336Z,2.21
2023-02-16T05:35:45.697Z,2.23
2023-02-16T05:38:31.321Z,2.13
2023-02-16T05:41:26.159Z,2.16
2023-02-16T05:44:11.763Z,2.18
2023-02-16T05:46:57.290Z,2.16
2023-02-16T05:49:42.951Z,2.31
2023-02-16T05:52:28.310Z,2.34
2023-02-16T05:55:13.577Z,2.41
2023-02-16T05:57:59.067Z,2.51
2023-02-16T06:00:44.446Z,2.48
2023-02-16T06:03:30.354Z,2.46
2023-02-16T06:06:15.759Z,2.49
2023-02-16T06:09:01.560Z,2.35
2023-02-16T06:11:47.352Z,2.31
2023-02-16T06:14:32.713Z,2.32
2023-02-16T06:17:18.322Z,2.31
2023-02-16T06:20:04.691Z,2.26
2023-02-16T06:22:50.256Z,2.26
2023-02-16T06:25:36.094Z,2.22
2023-02-16T06:28:21.790Z,2.21
2023-02-16T06:31:07.974Z,2.28
2023-02-16T06:33:54.204Z,2.35
2023-02-16T06:36:42.441Z,2.31
2023-02-16T06:39:28.340Z,2.37
2023-02-16T06:42:13.781Z,2.39
2023-02-16T06:44:59.352Z,2.46
2023-02-16T06:47:44.774Z,2.44
2023-02-16T06:50:30.083Z,2.61
2023-02-16T06:53:15.509Z,2.71
2023-02-16T06:56:00.958Z,2.74
2023-02-16T06:58:46.711Z,2.78
2023-02-16T07:01:32.347Z,2.80
2023-02-16T07:04:17.760Z,2.90
2023-02-16T07:07:04.077Z,3.15
2023-02-16T07:09:50.404Z,3.31
2023-02-16T07:12:36.035Z,3.33
2023-02-16T07:15:21.273Z,3.49
2023-02-16T07:18:06.804Z,3.56
2023-02-16T07:20:52.544Z,3.57
2023-02-16T07:23:38.264Z,3.63
2023-02-16T07:26:23.729Z,3.81
2023-02-16T07:29:09.180Z,3.80
2023-02-16T07:31:56.546Z,4.01
2023-02-16T07:34:42.287Z,4.14
2023-02-16T07:37:27.745Z,4.58
2023-02-16T07:40:13.355Z,5.30
2023-02-16T07:43:03.644Z,5.84
2023-02-16T07:45:49.386Z,6.48
2023-02-16T07:48:35.288Z,6.98
2023-02-16T07:51:25.214Z,7.80
2023-02-16T07:54:11.055Z,8.18
2023-02-16T07:56:56.795Z,8.21
2023-02-16T07:59:42.374Z,8.02
2023-02-16T08:02:28.078Z,8.97
2023-02-16T08:05:13.811Z,8.41
2023-02-16T08:07:59.352Z,7.76
2023-02-16T08:10:44.770Z,7.11
2023-02-16T08:13:30.380Z,7.07
2023-02-16T08:16:19.177Z,7.59
2023-02-16T08:19:05.079Z,7.54
2023-02-16T08:21:50.860Z,7.50
2023-02-16T08:24:37.305Z,7.53
2023-02-16T08:27:22.976Z,8.14
2023-02-16T08:30:12.710Z,8.75
2023-02-16T08:33:01.735Z,9.09
2023-02-16T08:35:47.104Z,8.96
2023-02-16T08:38:34.271Z,9.12
2023-02-16T08:41:21.838Z,10.37
2023-02-16T08:44:08.988Z,10.52
2023-02-16T08:46:56.209Z,12.54
2023-02-16T08:49:41.829Z,12.72
2023-02-16T08:52:27.888Z,13.44
2023-02-16T08:55:13.881Z,14.68
2023-02-16T08:58:00.678Z,13.61
2023-02-16T09:00:46.939Z,15.31
2023-02-16T09:03:32.625Z,15.18
2023-02-16T09:06:21.378Z,15.22
2023-02-16T09:09:08.658Z,12.31
2023-02-16T09:11:54.067Z,12.11
2023-02-16T09:14:40.223Z,11.58
2023-02-16T09:17:26.940Z,11.69
2023-02-16T09:20:12.371Z,11.36
2023-02-16T09:22:57.907Z,12.10
2023-02-16T09:25:43.508Z,12.05
2023-02-16T09:28:30.732Z,11.21
2023-02-16T09:31:27.098Z,11.30
2023-02-16T09:34:21.087Z,10.78
2023-02-16T09:37:06.814Z,10.93
2023-02-16T09:39:52.325Z,10.27
2023-02-16T09:43:08.134Z,10.10
2023-02-16T09:45:58.041Z,9.87
2023-02-16T09:48:48.564Z,9.65
2023-02-16T09:51:38.098Z,9.72
2023-02-16T09:54:46.754Z,9.57
2023-02-16T09:58:01.055Z,9.42
2023-02-16T10:00:56.177Z,9.21
2023-02-16T10:04:05.862Z,9.29
2023-02-16T10:07:23.152Z,9.44
2023-02-16T10:10:16.291Z,9.77
2023-02-16T10:13:09.326Z,9.33
2023-02-16T10:15:58.188Z,9.41
2023-02-16T10:18:49.538Z,9.19
2023-02-16T10:21:36.008Z,9.18
2023-02-16T10:24:21.388Z,9.20
2023-02-16T10:27:14.283Z,8.87
2023-02-16T10:29:59.661Z,8.77
2023-02-16T10:33:04.367Z,8.95
2023-02-16T10:35:56.965Z,9.58
2023-02-16T10:39:23.173Z,10.09
2023-02-16T10:42:27.023Z,9.97
2023-02-16T10:45:19.295Z,10.27
2023-02-16T10:48:05.582Z,10.14
2023-02-16T10:51:13.942Z,10.53
2023-02-16T10:54:04.347Z,10.74
2023-02-16T10:57:00.938Z,10.96
2023-02-16T10:59:47.133Z,10.94
2023-02-16T11:02:39.023Z,11.82
2023-02-16T11:05:32.196Z,12.60
2023-02-16T11:08:17.767Z,12.80
2023-02-16T11:11:10.274Z,14.17
2023-02-16T11:14:30.852Z,16.74
2023-02-16T11:17:18.570Z,16.57
2023-02-16T11:20:07.046Z,15.29
2023-02-16T11:22:52.779Z,13.29
2023-02-16T11:25:38.258Z,12.88
2023-02-16T11:28:38.549Z,12.85
2023-02-16T11:31:40.598Z,12.47
2023-02-16T11:34:34.586Z,12.52
2023-02-16T11:37:27.584Z,12.64
2023-02-16T11:40:19.076Z,12.06
2023-02-16T11:43:05.847Z,12.32
2023-02-16T11:46:11.616Z,12.08
2023-02-16T11:48:57.298Z,11.63
2023-02-16T11:51:42.723Z,11.97
2023-02-16T11:54:28.117Z,11.89
2023-02-16T11:57:15.670Z,11.70
2023-02-16T12:00:23.865Z,11.91
2023-02-16T12:03:31.130Z,12.05
2023-02-16T12:06:31.583Z,12.34
2023-02-16T12:09:38.882Z,12.51
2023-02-16T12:13:00.738Z,12.53
2023-02-16T12:16:12.644Z,12.09
2023-02-16T12:19:20.635Z,12.04
2023-02-16T12:22:33.022Z,12.29
2023-02-16T12:25:38.977Z,12.13
2023-02-16T12:28:54.380Z,13.08
2023-02-16T12:32:14.157Z,13.55
2023-02-16T12:35:21.855Z,13.51
2023-02-16T12:38:56.982Z,12.88
2023-02-16T12:42:04.124Z,12.71
2023-02-16T12:44:57.098Z,12.13
2023-02-16T12:48:01.568Z,12.79
2023-02-16T12:50:51.173Z,12.99
2023-02-16T12:53:52.020Z,12.92
2023-02-16T12:56:47.591Z,12.38
2023-02-16T12:59:41.733Z,12.32
2023-02-16T13:02:35.470Z,12.24
2023-02-16T13:05:26.402Z,11.94
2023-02-16T13:08:22.207Z,11.64
2023-02-16T13:11:25.534Z,11.35
2023-02-16T13:14:17.442Z,11.27
2023-02-16T13:17:10.201Z,11.06
2023-02-16T13:19:56.024Z,10.97
2023-02-16T13:22:58.173Z,11.10
2023-02-16T13:26:12.235Z,11.17
2023-02-16T13:29:26.199Z,11.11
2023-02-16T13:32:30.143Z,11.07
2023-02-16T13:35:49.423Z,11.14
2023-02-16T13:39:11.215Z,11.02
2023-02-16T13:42:40.872Z,10.99
2023-02-16T13:45:42.198Z,11.71
2023-02-16T13:48:36.798Z,12.22
2023-02-16T13:51:25.278Z,13.04
2023-02-16T13:54:28.018Z,14.39
2023-02-16T13:57:15.016Z,14.43
2023-02-16T14:00:05.885Z,13.60
2023-02-16T14:02:54.791Z,12.15
2023-02-16T14:05:49.348Z,11.70
2023-02-16T14:08:35.148Z,11.66
2023-02-16T14:11:20.392Z,11.93
2023-02-16T14:14:31.269Z,12.10
2023-02-16T14:17:19.607Z,12.35
2023-02-16T14:20:26.398Z,12.49
2023-02-16T14:23:28.326Z,12.06
2023-02-16T14:26:14.815Z,11.63
2023-02-16T14:29:10.054Z,11.82
2023-02-16T14:32:01.011Z,12.03
2023-02-16T14:34:51.378Z,12.21
2023-02-16T14:37:41.196Z,12.45
2023-02-16T14:40:35.475Z,12.33
2023-02-16T14:43:25.603Z,11.78
2023-02-16T14:46:24.388Z,11.72
2023-02-16T14:49:19.279Z,11.71
2023-02-16T14:52:29.588Z,11.46
2023-02-16T14:55:41.967Z,11.25
2023-02-16T14:59:00.549Z,11.40
2023-02-16T15:01:46.983Z,11.25
2023-02-16T15:04:35.004Z,11.38
2023-02-16T15:07:21.554Z,11.18
2023-02-16T15:10:09.176Z,11.14
2023-02-16T15:12:55.937Z,11.08
2023-02-16T15:15:47.237Z,10.95
2023-02-16T15:18:38.377Z,11.02
2023-02-16T15:21:28.293Z,10.85
2023-02-16T15:24:24.179Z,10.80
2023-02-16T15:27:21.257Z,10.65
2023-02-16T15:30:20.511Z,10.70
2023-02-16T15:33:14.011Z,10.72
2023-02-16T15:36:21.956Z,10.48
2023-02-16T15:39:13.854Z,10.50
2023-02-16T15:42:31.739Z,10.43
2023-02-16T15:45:33.113Z,10.33
2023-02-16T15:48:36.730Z,10.42
2023-02-16T15:51:33.176Z,10.49
2023-02-16T15:54:31.133Z,10.37
2023-02-16T15:57:31.934Z,10.35
2023-02-16T16:00:21.079Z,10.47
2023-02-16T16:03:09.496Z,10.46
2023-02-16T16:06:03.517Z,10.23
2023-02-16T16:08:49.073Z,10.36
2023-02-16T16:11:36.289Z,10.23
2023-02-16T16:14:22.387Z,10.15
2023-02-16T16:17:13.259Z,10.13
2023-02-16T16:20:17.909Z,10.11
2023-02-16T16:23:24.896Z,10.11
2023-02-16T16:26:19.173Z,10.14
2023-02-16T16:29:24.564Z,10.10
2023-02-16T16:32:18.405Z,10.04
2023-02-16T16:35:22.191Z,10.09
2023-02-16T16:38:24.436Z,10.01
2023-02-16T16:41:27.578Z,9.95
2023-02-16T16:44:33.072Z,9.93
2023-02-16T16:47:30.574Z,9.83
2023-02-16T16:50:18.127Z,9.75
2023-02-16T16:53:23.690Z,9.70
2023-02-16T16:56:11.108Z,9.79
2023-02-16T16:58:58.284Z,9.72
2023-02-16T17:01:46.036Z,9.65
2023-02-16T17:04:31.440Z,9.67
2023-02-16T17:07:16.828Z,9.60
2023-02-16T17:10:02.442Z,9.51
2023-02-16T17:12:52.284Z,9.60
2023-02-16T17:16:00.921Z,9.49
2023-02-16T17:18:46.412Z,9.58
2023-02-16T17:21:31.829Z,9.44
2023-02-16T17:24:17.106Z,9.44
2023-02-16T17:27:02.523Z,9.42
2023-02-16T17:29:48.031Z,9.41
2023-02-16T17:32:33.666Z,9.47
2023-02-16T17:35:19.362Z,9.39
2023-02-16T17:38:20.067Z,9.34
2023-02-16T17:41:05.561Z,9.22
2023-02-16T17:43:51.068Z,9.22
2023-02-16T17:46:36.684Z,9.25
2023-02-16T17:49:22.080Z,9.20
2023-02-16T17:52:13.681Z,9.22
2023-02-16T17:54:59.245Z,9.20
2023-02-16T17:57:44.918Z,9.24
2023-02-16T18:00:30.575Z,9.16
2023-02-16T18:03:16.503Z,9.15
2023-02-16T18:06:01.877Z,9.17
2023-02-16T18:08:49.993Z,9.13
2023-02-16T18:11:35.691Z,9.09
2023-02-16T18:14:21.001Z,9.06
2023-02-16T18:17:07.117Z,9.04
2023-02-16T18:19:52.388Z,8.88
2023-02-16T18:22:37.710Z,8.84
2023-02-16T18:25:23.861Z,8.74
2023-02-16T18:28:21.039Z,8.83
2023-02-16T18:31:08.042Z,8.80
2023-02-16T18:33:53.593Z,8.89
2023-02-16T18:36:39.299Z,8.66
2023-02-16T18:39:24.946Z,8.67
2023-02-16T18:42:10.971Z,8.68
2023-02-16T18:44:56.558Z,8.62
2023-02-16T18:47:44.220Z,8.52
2023-02-16T18:50:30.207Z,8.50
2023-02-16T18:53:15.714Z,8.47
2023-02-16T18:56:01.338Z,8.46
2023-02-16T18:58:46.975Z,8.42
2023-02-16T19:01:33.375Z,8.43
2023-02-16T19:04:19.071Z,8.42
2023-02-16T19:07:04.914Z,8.54
2023-02-16T19:09:50.325Z,8.53
2023-02-16T19:12:37.374Z,8.62
2023-02-16T19:15:22.917Z,8.69
2023-02-16T19:18:08.257Z,8.77
2023-02-16T19:20:53.900Z,8.67
2023-02-16T19:23:39.720Z,8.70
2023-02-16T19:26:25.480Z,8.81
2023-02-16T19:29:12.670Z,8.87
2023-02-16T19:31:58.388Z,8.87
2023-02-16T19:34:43.834Z,8.85
2023-02-16T19:37:29.660Z,8.82
2023-02-16T19:40:16.523Z,8.83
2023-02-16T19:43:01.854Z,8.89
2023-02-16T19:45:47.334Z,8.76
2023-02-16T19:48:32.924Z,8.76
2023-02-16T19:51:24.053Z,8.59
2023-02-16T19:54:09.549Z,8.57
2023-02-16T19:56:54.817Z,8.65
2023-02-16T19:59:40.332Z,8.57
2023-02-16T20:02:25.717Z,8.53
2023-02-16T20:05:11.759Z,8.60
2023-02-16T20:07:57.181Z,8.46
2023-02-16T20:10:44.293Z,8.46
2023-02-16T20:13:29.755Z,8.46
2023-02-16T20:16:15.895Z,8.46
2023-02-16T20:19:01.460Z,8.53
2023-02-16T20:21:47.223Z,8.49
2023-02-16T20:24:32.469Z,8.53
2023-02-16T20:27:18.280Z,8.53
2023-02-16T20:30:08.293Z,8.52
2023-02-16T20:32:53.732Z,8.36
2023-02-16T20:35:39.407Z,8.27
2023-02-16T20:38:24.819Z,8.30
2023-02-16T20:41:10.814Z,8.28
2023-02-16T20:43:56.391Z,8.32
2023-02-16T20:46:42.433Z,8.22
2023-02-16T20:49:27.888Z,8.32
2023-02-16T20:52:13.493Z,8.34
2023-02-16T20:54:58.707Z,8.16
2023-02-16T20:57:44.175Z,8.15
2023-02-16T21:00:29.915Z,8.09
2023-02-16T21:03:15.749Z,8.15
2023-02-16T21:06:01.052Z,8.23
2023-02-16T21:08:46.606Z,8.03
2023-02-16T21:11:32.676Z,8.14
2023-02-16T21:14:18.059Z,8.10
2023-02-16T21:17:03.765Z,8.13
2023-02-16T21:19:49.360Z,8.04
2023-02-16T21:22:35.462Z,8.07
2023-02-16T21:25:20.986Z,8.00
2023-02-16T21:28:06.517Z,7.97
2023-02-16T21:30:51.935Z,7.99
2023-02-16T21:33:37.826Z,7.89
2023-02-16T21:36:25.720Z,7.87
2023-02-16T21:39:11.079Z,7.76
2023-02-16T21:41:56.450Z,7.78
2023-02-16T21:44:44.710Z,7.77
2023-02-16T21:47:48.752Z,7.80
2023-02-16T21:50:38.176Z,7.80
2023-02-16T21:53:23.761Z,7.99
2023-02-16T21:56:19.449Z,7.97
2023-02-16T21:59:08.792Z,7.99
2023-02-16T22:01:54.070Z,7.90
2023-02-16T22:04:39.831Z,8.01
2023-02-16T22:07:25.295Z,7.93
2023-02-16T22:10:10.696Z,7.91
2023-02-16T22:12:57.162Z,8.03
2023-02-16T22:15:42.701Z,8.06
2023-02-16T22:18:28.532Z,7.95
2023-02-16T22:21:14.010Z,7.93
2023-02-16T22:24:00.646Z,7.92
2023-02-16T22:26:48.418Z,7.95
2023-02-16T22:29:34.141Z,8.04
2023-02-16T22:32:19.876Z,7.95
2023-02-16T22:35:05.667Z,7.95
2023-02-16T22:37:51.025Z,7.83
2023-02-16T22:40:36.723Z,7.91
2023-02-16T22:43:22.151Z,7.89
2023-02-16T22:46:12.957Z,7.93
2023-02-16T22:48:59.573Z,7.98
2023-02-16T22:51:45.052Z,7.93
2023-02-16T22:54:30.943Z,7.91
2023-02-16T22:57:16.280Z,7.89
2023-02-16T23:00:01.769Z,7.88
2023-02-16T23:02:47.515Z,7.88
2023-02-16T23:05:32.863Z,7.91
2023-02-16T23:08:18.451Z,7.84
2023-02-16T23:11:04.570Z,7.89
2023-02-16T23:13:49.978Z,7.85
2023-02-16T23:16:35.623Z,7.94
2023-02-16T23:19:24.655Z,7.92
2023-02-16T23:22:10.127Z,7.88
2023-02-16T23:25:15.370Z,7.94
2023-02-16T23:28:02.603Z,7.78
2023-02-16T23:30:48.522Z,7.85
2023-02-16T23:33:34.274Z,7.91
2023-02-16T23:36:19.594Z,7.89
2023-02-16T23:39:15.368Z,7.93
2023-02-16T23:42:01.134Z,7.94
2023-02-16T23:44:46.476Z,8.03
2023-02-16T23:47:32.300Z,8.03
2023-02-16T23:50:17.727Z,7.99
2023-02-16T23:53:03.153Z,8.01
2023-02-16T23:56:06.449Z,8.03
2023-02-16T23:58:53.005Z,8.11
